createdAt,value
2019-02-14T00:05:27.111Z,978
2019-02-14T00:15:30.529Z,978.3
2019-02-14T00:25:33.992Z,978.4
2019-02-14T00:35:37.432Z,978.4
2019-02-14T00:45:40.872Z,978.6
2019-02-14T00:55:44.308Z,978.5
2019-02-14T01:05:47.740Z,978.5
2019-02-14T01:15:51.161Z,978.6
2019-02-14T01:25:54.592Z,978.7
2019-02-14T01:35:58.049Z,978.9
2019-02-14T01:46:01.488Z,978.9
2019-02-14T01:56:04.911Z,978.9
2019-02-14T02:06:08.356Z,979.5
2019-02-14T02:16:11.770Z,979.6
2019-02-14T02:26:15.174Z,979.3
2019-02-14T02:36:18.606Z,979.3
2019-02-14T02:46:22.039Z,979.8
2019-02-14T02:56:25.504Z,979.4
2019-02-14T03:06:28.938Z,979.4
2019-02-14T03:16:32.382Z,979.8
2019-02-14T03:26:35.831Z,979.6
2019-02-14T03:36:39.294Z,979.5
2019-02-14T03:46:42.744Z,979.7
2019-02-14T03:56:46.146Z,979.9
2019-02-14T04:06:49.543Z,980.4
2019-02-14T04:16:52.950Z,980
2019-02-14T04:26:56.373Z,980.2
2019-02-14T04:36:59.833Z,980.4
2019-02-14T04:47:03.235Z,980.9
2019-02-14T04:57:06.642Z,980.5
2019-02-14T05:07:10.091Z,980.5
2019-02-14T05:17:13.497Z,980.5
2019-02-14T05:27:17.006Z,980.7
2019-02-14T05:37:20.452Z,980.6
2019-02-14T05:47:23.917Z,980.8
2019-02-14T05:57:27.765Z,980.8
2019-02-14T06:07:31.176Z,980.7
2019-02-14T06:17:34.615Z,980.6
2019-02-14T06:27:38.036Z,980.6
2019-02-14T06:37:41.540Z,980.9
2019-02-14T06:47:45.002Z,981
2019-02-14T06:57:48.452Z,980.9
2019-02-14T07:07:51.904Z,981.3
2019-02-14T07:17:55.405Z,980.5
2019-02-14T07:27:58.867Z,978.8
2019-02-14T07:38:02.304Z,985.4
2019-02-14T07:48:05.726Z,984.4
2019-02-14T07:58:09.149Z,983.7
2019-02-14T08:08:12.581Z,982.9
2019-02-14T08:18:15.986Z,982.5
2019-02-14T08:28:19.428Z,981.5
2019-02-14T08:38:22.852Z,980.1
2019-02-14T08:48:26.265Z,979.7
2019-02-14T08:58:29.704Z,978.7
2019-02-14T09:08:33.187Z,978.7
2019-02-14T09:18:36.640Z,986.2
2019-02-14T09:28:40.072Z,978.9
2019-02-14T09:38:43.525Z,986.1
2019-02-14T09:48:46.938Z,985.8
2019-02-14T09:58:50.525Z,985.6
2019-02-14T10:08:53.970Z,985.2
2019-02-14T10:18:57.422Z,984.8
2019-02-14T10:29:00.838Z,985.1
2019-02-14T10:39:04.267Z,985.2
2019-02-14T10:49:07.714Z,985.6
2019-02-14T10:59:11.166Z,985.6
2019-02-14T11:09:14.610Z,986
2019-02-14T11:19:18.076Z,985.8
2019-02-14T11:29:21.484Z,985.5
2019-02-14T11:39:24.911Z,985.4
2019-02-14T11:49:28.310Z,985.4
2019-02-14T11:59:31.756Z,984.9
2019-02-14T12:09:35.159Z,984.4
2019-02-14T12:19:38.619Z,984
2019-02-14T12:29:42.068Z,984.4
2019-02-14T12:39:45.522Z,984.1
2019-02-14T12:49:48.949Z,983.4
2019-02-14T12:59:52.414Z,983.2
2019-02-14T13:09:56.839Z,982.9
2019-02-14T13:20:00.573Z,982.4
2019-02-14T13:30:04.033Z,983.1
2019-02-14T13:40:07.486Z,982.7
2019-02-14T13:50:10.949Z,982.4
2019-02-14T14:00:14.448Z,981.8
2019-02-14T14:10:17.891Z,981.8
2019-02-14T14:20:21.322Z,981.6
2019-02-14T14:30:24.777Z,981.8
2019-02-14T14:40:28.183Z,981.6
2019-02-14T14:50:31.627Z,981.8
2019-02-14T15:00:35.080Z,982
2019-02-14T15:10:38.533Z,982
2019-02-14T15:20:42.976Z,981.7
2019-02-14T15:30:46.420Z,981.6
2019-02-14T15:40:49.933Z,981.6
2019-02-14T15:50:57.088Z,981.5
2019-02-14T16:01:00.586Z,981.3
2019-02-14T16:11:04.064Z,981.2
2019-02-14T16:21:08.257Z,981.3
2019-02-14T16:31:11.692Z,981.3
2019-02-14T16:41:15.183Z,981.6
2019-02-14T16:51:18.616Z,981.9
2019-02-14T17:01:22.051Z,982.4
2019-02-14T17:11:25.512Z,982.8
2019-02-14T17:21:28.965Z,975.9
2019-02-14T17:31:32.403Z,976.2
2019-02-14T17:41:35.845Z,976.9
2019-02-14T17:51:39.282Z,977.2
2019-02-14T18:01:42.737Z,977.5
2019-02-14T18:11:46.164Z,977.4
2019-02-14T18:21:49.600Z,977.9
2019-02-14T18:31:53.174Z,978.4
2019-02-14T18:41:56.605Z,978.9
2019-02-14T18:52:00.127Z,978.9
2019-02-14T19:02:04.581Z,979.2
2019-02-14T19:12:08.025Z,979.6
2019-02-14T19:22:11.480Z,979.5
2019-02-14T19:32:14.905Z,980.1
2019-02-14T19:42:18.353Z,980.1
2019-02-14T19:52:21.805Z,980.2
2019-02-14T20:02:25.257Z,980.5
2019-02-14T20:12:28.683Z,980.4
2019-02-14T20:22:32.143Z,980.6
2019-02-14T20:32:35.590Z,980.7
2019-02-14T20:42:39.064Z,980.9
2019-02-14T20:52:42.701Z,981
2019-02-14T21:02:46.193Z,980.8
2019-02-14T21:12:50.110Z,980.8
2019-02-14T21:22:53.594Z,980.6
2019-02-14T21:32:57.048Z,980.8
2019-02-14T21:43:00.508Z,980.1
2019-02-14T21:53:04.097Z,980.3
2019-02-14T22:03:07.596Z,980.2
2019-02-14T22:13:11.059Z,981.2
2019-02-14T22:23:14.512Z,981.2
2019-02-14T22:33:17.924Z,981.5
2019-02-14T22:43:21.326Z,981.7
2019-02-14T22:53:24.757Z,981.9
2019-02-14T23:03:28.199Z,981.8
2019-02-14T23:13:31.661Z,981.9
2019-02-14T23:23:35.110Z,982.1
2019-02-14T23:33:38.567Z,982.2
2019-02-14T23:43:41.972Z,982.2
2019-02-14T23:53:45.424Z,982.7
